Time;durP1;ratioP1;P1;durP2;ratioP2;P2;SDS_P1;SDS_P2;PMS_P1;PMS_P2;Temp;Humidity;BMP_temperature;BMP_pressure;BME280_temperature;BME280_humidity;BME280_pressure;Samples;Min_cycle;Max_cycle;Signal;HPM_P1;HPM_P2
2022/09/09 00:02:18;;;;;;;;;;;;;;;17.14;100.00;98576.48;104919;1272;61309;-70
2022/09/09 00:04:48;;;;;;;;;;;;;;;17.13;100.00;98576.73;105135;1271;69433;-70
2022/09/09 00:07:14;;;;;;;;;;;;;;;17.13;100.00;98574.73;105147;1271;73658;-70
2022/09/09 00:09:43;;;;;;;;;;;;;;;17.13;100.00;98576.23;105118;1271;61138;-70
2022/09/09 00:12:14;;;;;;;;;;;;;;;17.11;100.00;98568.66;105030;1270;61167;-71
2022/09/09 00:14:43;;;;;;;;;;;;;;;17.09;100.00;98573.36;105123;1271;75295;-70
2022/09/09 00:17:14;;;;;;;;;;;;;;;17.07;100.00;98572.50;105156;1271;69634;-70
2022/09/09 00:19:40;;;;;;;;;;;;;;;17.05;100.00;98571.84;105323;1271;73805;-70
2022/09/09 00:22:33;;;;;;;;;;;;;;;17.03;100.00;98571.80;105087;1270;61438;-70
2022/09/09 00:25:10;;;;;;;;;;;;;;;17.01;100.00;98569.29;104539;1277;62033;-70
2022/09/09 00:27:37;;;;;;;;;;;;;;;16.99;100.00;98575.66;104545;1277;75330;-70
2022/09/09 00:30:18;;;;;;;;;;;;;;;16.98;100.00;98576.68;104523;1277;70321;-70
2022/09/09 00:32:44;;;;;;;;;;;;;;;16.95;100.00;98582.90;104472;1277;73371;-70
2022/09/09 00:35:10;;;;;;;;;;;;;;;16.90;100.00;98588.35;104478;1277;61451;-70
2022/09/09 00:37:38;;;;;;;;;;;;;;;16.86;100.00;98586.74;104533;1277;61269;-70
2022/09/09 00:40:16;;;;;;;;;;;;;;;16.83;100.00;98586.73;104639;1278;75389;-71
2022/09/09 00:42:43;;;;;;;;;;;;;;;16.81;100.00;98587.29;104581;1278;69373;-71
2022/09/09 00:45:31;;;;;;;;;;;;;;;16.80;100.00;98587.98;104119;1277;71962;-71
2022/09/09 00:48:01;;;;;;;;;;;;;;;16.78;100.00;98590.31;104470;1277;61491;-70
2022/09/09 00:50:36;;;;;;;;;;;;;;;16.76;100.00;98592.21;104504;1277;61718;-70
2022/09/09 00:53:09;;;;;;;;;;;;;;;16.75;100.00;98593.59;104394;1277;74999;-69
2022/09/09 00:55:47;;;;;;;;;;;;;;;16.75;100.00;98594.73;104515;1277;70442;-70
2022/09/09 00:58:13;;;;;;;;;;;;;;;16.73;100.00;98596.12;104580;1277;74794;-71
2022/09/09 01:01:00;;;;;;;;;;;;;;;16.72;100.00;98597.71;104517;1277;61302;-70
2022/09/09 01:03:37;;;;;;;;;;;;;;;16.70;100.00;98597.67;104651;1276;61943;-70
2022/09/09 01:06:19;;;;;;;;;;;;;;;16.70;100.00;98602.73;104725;1277;76239;-70
2022/09/09 01:08:59;;;;;;;;;;;;;;;16.70;100.00;98607.19;104706;1276;69421;-70
2022/09/09 01:11:29;;;;;;;;;;;;;;;16.69;100.00;98611.04;104681;1276;73580;-70
2022/09/09 01:14:03;;;;;;;;;;;;;;;16.69;100.00;98616.25;104769;1277;61444;-71
2022/09/09 01:16:29;;;;;;;;;;;;;;;16.68;100.00;98616.84;104712;1277;61453;-69
2022/09/09 01:18:56;;;;;;;;;;;;;;;16.67;100.00;98617.14;104710;1276;76306;-71
2022/09/09 01:21:22;;;;;;;;;;;;;;;16.66;100.00;98611.69;104516;1278;61354;-69
2022/09/09 01:23:48;;;;;;;;;;;;;;;16.64;100.00;98613.27;104677;1277;61358;-69
2022/09/09 01:26:15;;;;;;;;;;;;;;;16.63;100.00;98608.23;104677;1277;61324;-70
2022/09/09 01:28:46;;;;;;;;;;;;;;;16.61;100.00;98609.31;104725;1276;61266;-70
2022/09/09 01:31:15;;;;;;;;;;;;;;;16.60;100.00;98608.92;104704;1276;76352;-70
2022/09/09 01:33:41;;;;;;;;;;;;;;;16.58;100.00;98615.86;104705;1276;70368;-70
2022/09/09 01:36:10;;;;;;;;;;;;;;;16.56;100.00;98610.02;104682;1276;61458;-70
2022/09/09 01:38:36;;;;;;;;;;;;;;;16.54;100.00;98615.73;104702;1277;62982;-70
2022/09/09 01:41:04;;;;;;;;;;;;;;;16.52;100.00;98614.56;104925;1271;61285;-70
2022/09/09 01:43:30;;;;;;;;;;;;;;;16.49;100.00;98614.46;105120;1270;61315;-70
2022/09/09 01:45:58;;;;;;;;;;;;;;;16.44;100.00;98615.77;105129;1270;61345;-70
2022/09/09 01:48:25;;;;;;;;;;;;;;;16.40;100.00;98617.70;105067;1270;74468;-70
2022/09/09 01:50:51;;;;;;;;;;;;;;;16.35;100.00;98618.70;105128;1270;62151;-71
2022/09/09 01:53:18;;;;;;;;;;;;;;;16.30;100.00;98617.70;105006;1270;61358;-70
2022/09/09 01:55:49;;;;;;;;;;;;;;;16.25;100.00;98617.10;105213;1270;75375;-70
2022/09/09 01:58:41;;;;;;;;;;;;;;;16.20;100.00;98615.25;105137;1270;69571;-70
2022/09/09 02:01:15;;;;;;;;;;;;;;;16.13;100.00;98620.60;105121;1270;74566;-71
2022/09/09 02:03:44;;;;;;;;;;;;;;;16.09;100.00;98625.88;105183;1270;61371;-70
2022/09/09 02:06:18;;;;;;;;;;;;;;;16.03;100.00;98624.77;105132;1270;61382;-70
2022/09/09 02:08:48;;;;;;;;;;;;;;;15.98;100.00;98629.59;104929;1272;76517;-70
2022/09/09 02:11:16;;;;;;;;;;;;;;;15.93;100.00;98633.09;105207;1270;70610;-70
2022/09/09 02:13:47;;;;;;;;;;;;;;;15.89;100.00;98632.62;105120;1270;73261;-69
2022/09/09 02:16:27;;;;;;;;;;;;;;;15.84;100.00;98638.31;105145;1270;61417;-69
2022/09/09 02:19:00;;;;;;;;;;;;;;;15.79;100.00;98639.79;105156;1270;61282;-68
2022/09/09 02:21:28;;;;;;;;;;;;;;;15.76;100.00;98640.63;105121;1270;74406;-70
2022/09/09 02:23:57;;;;;;;;;;;;;;;15.73;100.00;98649.67;105124;1270;69386;-71
2022/09/09 02:26:23;;;;;;;;;;;;;;;15.70;100.00;98657.99;105130;1270;72957;-70
2022/09/09 02:28:50;;;;;;;;;;;;;;;15.66;100.00;98656.70;105131;1270;61348;-70
2022/09/09 02:31:19;;;;;;;;;;;;;;;15.63;100.00;98661.34;105163;1270;61375;-69
2022/09/09 02:33:49;;;;;;;;;;;;;;;15.61;100.00;98659.34;104863;1270;74959;-71
2022/09/09 02:36:16;;;;;;;;;;;;;;;15.60;100.00;98659.41;105118;1270;69604;-70
2022/09/09 02:38:45;;;;;;;;;;;;;;;15.59;100.00;98662.95;105257;1270;73548;-68
2022/09/09 02:41:11;;;;;;;;;;;;;;;15.57;100.00;98664.70;105221;1270;61139;-71
2022/09/09 02:43:38;;;;;;;;;;;;;;;15.56;100.00;98664.30;105145;1270;61986;-70
2022/09/09 02:46:10;;;;;;;;;;;;;;;15.55;100.00;98664.23;105110;1270;61268;-70
2022/09/09 02:48:46;;;;;;;;;;;;;;;15.53;100.00;98667.06;105191;1270;69454;-70
2022/09/09 02:51:23;;;;;;;;;;;;;;;15.53;100.00;98671.52;105134;1270;74804;-69
2022/09/09 02:54:08;;;;;;;;;;;;;;;15.55;100.00;98674.73;105056;1270;61298;-69
2022/09/09 02:56:38;;;;;;;;;;;;;;;15.57;100.00;98675.81;104963;1271;61246;-69
2022/09/09 02:59:05;;;;;;;;;;;;;;;15.61;100.00;98681.06;105151;1270;75917;-69
2022/09/09 03:01:31;;;;;;;;;;;;;;;15.64;100.00;98682.88;105149;1270;61275;-70
2022/09/09 03:03:57;;;;;;;;;;;;;;;15.66;100.00;98685.54;105077;1270;73684;-70
2022/09/09 03:06:23;;;;;;;;;;;;;;;15.69;100.00;98687.45;105106;1270;61404;-70
2022/09/09 03:08:49;;;;;;;;;;;;;;;15.72;100.00;98686.10;104934;1271;61278;-69
2022/09/09 03:11:16;;;;;;;;;;;;;;;15.75;100.00;98690.45;105121;1270;61384;-70
2022/09/09 03:13:43;;;;;;;;;;;;;;;15.77;100.00;98688.64;105147;1270;61284;-70
2022/09/09 03:16:09;;;;;;;;;;;;;;;15.79;100.00;98687.02;105121;1270;61270;-70
2022/09/09 03:18:35;;;;;;;;;;;;;;;15.82;100.00;98684.86;105103;1270;61387;-70
2022/09/09 03:21:01;;;;;;;;;;;;;;;15.83;100.00;98686.35;105143;1270;61367;-70
2022/09/09 03:23:27;;;;;;;;;;;;;;;15.84;100.00;98684.84;105141;1269;61387;-70
2022/09/09 03:25:56;;;;;;;;;;;;;;;15.85;100.00;98683.14;104966;1271;61157;-70
2022/09/09 03:28:23;;;;;;;;;;;;;;;15.85;100.00;98683.87;105096;1270;61449;-70
2022/09/09 03:30:49;;;;;;;;;;;;;;;15.85;100.00;98681.84;105142;1271;61364;-70
2022/09/09 03:33:16;;;;;;;;;;;;;;;15.85;100.00;98683.99;105119;1270;61352;-70
2022/09/09 03:35:50;;;;;;;;;;;;;;;15.85;100.00;98682.27;105095;1270;61396;-70
2022/09/09 03:38:16;;;;;;;;;;;;;;;15.84;100.00;98685.38;105143;1270;70167;-70
2022/09/09 03:40:55;;;;;;;;;;;;;;;15.84;100.00;98689.67;105097;1270;74450;-70
2022/09/09 03:43:21;;;;;;;;;;;;;;;15.83;100.00;98695.13;105180;1270;61372;-70
2022/09/09 03:45:48;;;;;;;;;;;;;;;15.81;100.00;98694.94;104968;1270;61395;-69
2022/09/09 03:48:15;;;;;;;;;;;;;;;15.79;100.00;98695.52;105111;1270;61396;-70
2022/09/09 03:50:46;;;;;;;;;;;;;;;15.76;100.00;98701.70;105152;1270;70492;-71
2022/09/09 03:53:12;;;;;;;;;;;;;;;15.73;100.00;98710.94;105277;1270;73427;-71
2022/09/09 03:55:38;;;;;;;;;;;;;;;15.69;100.00;98706.45;105126;1270;61385;-69
2022/09/09 03:58:04;;;;;;;;;;;;;;;15.65;100.00;98712.15;104941;1271;61465;-70
2022/09/09 04:00:30;;;;;;;;;;;;;;;15.61;100.00;98715.54;104937;1272;61324;-70
2022/09/09 04:02:57;;;;;;;;;;;;;;;15.58;100.00;98718.13;105035;1270;61335;-69
2022/09/09 04:05:23;;;;;;;;;;;;;;;15.55;100.00;98717.04;105117;1270;61333;-71
2022/09/09 04:07:51;;;;;;;;;;;;;;;15.51;100.00;98714.18;105141;1270;61387;-72
2022/09/09 04:10:17;;;;;;;;;;;;;;;15.48;100.00;98718.98;104959;1270;61375;-68
2022/09/09 04:12:43;;;;;;;;;;;;;;;15.42;100.00;98721.07;105130;1270;61360;-69
2022/09/09 04:15:10;;;;;;;;;;;;;;;15.38;100.00;98719.27;105073;1271;61382;-70
2022/09/09 04:17:36;;;;;;;;;;;;;;;15.35;100.00;98717.79;105129;1270;61357;-71
2022/09/09 04:20:06;;;;;;;;;;;;;;;15.32;100.00;98720.73;105103;1270;61378;-71
2022/09/09 04:22:32;;;;;;;;;;;;;;;15.30;100.00;98713.41;104876;1271;61182;-71
2022/09/09 04:24:58;;;;;;;;;;;;;;;15.29;100.00;98723.20;105154;1270;61454;-70
2022/09/09 04:27:24;;;;;;;;;;;;;;;15.27;100.00;98723.36;105148;1270;61362;-70
2022/09/09 04:29:50;;;;;;;;;;;;;;;15.26;100.00;98720.55;105068;1270;61394;-70
2022/09/09 04:32:16;;;;;;;;;;;;;;;15.27;100.00;98721.39;104942;1271;61502;-70
2022/09/09 04:34:42;;;;;;;;;;;;;;;15.27;100.00;98723.50;104934;1271;61281;-69
2022/09/09 04:37:08;;;;;;;;;;;;;;;15.28;100.00;98723.41;105111;1270;61352;-69
2022/09/09 04:39:34;;;;;;;;;;;;;;;15.31;100.00;98725.27;104929;1270;61242;-69
2022/09/09 04:42:00;;;;;;;;;;;;;;;15.34;100.00;98722.73;105146;1270;61400;-71
2022/09/09 04:44:26;;;;;;;;;;;;;;;15.37;100.00;98723.11;105172;1270;61309;-70
2022/09/09 04:46:52;;;;;;;;;;;;;;;15.41;100.00;98723.64;105173;1270;61329;-70
2022/09/09 04:49:18;;;;;;;;;;;;;;;15.50;100.00;98722.36;105171;1270;61319;-70
2022/09/09 04:51:44;;;;;;;;;;;;;;;15.97;100.00;98720.30;105140;1270;61359;-70
2022/09/09 04:54:11;;;;;;;;;;;;;;;16.45;100.00;98720.95;105164;1270;61376;-70
2022/09/09 04:56:37;;;;;;;;;;;;;;;16.62;100.00;98716.98;105151;1270;61349;-70
2022/09/09 04:59:03;;;;;;;;;;;;;;;16.43;100.00;98715.46;105053;1270;61388;-70
2022/09/09 05:01:29;;;;;;;;;;;;;;;16.35;100.00;98721.21;104961;1271;61435;-71
2022/09/09 05:03:56;;;;;;;;;;;;;;;16.34;100.00;98721.22;105151;1270;61395;-71
2022/09/09 05:06:22;;;;;;;;;;;;;;;16.79;100.00;98721.53;105122;1270;61389;-71
2022/09/09 05:08:51;;;;;;;;;;;;;;;17.32;100.00;98716.81;105075;1270;61358;-71
2022/09/09 05:11:20;;;;;;;;;;;;;;;17.81;100.00;98720.23;105173;1270;61394;-71
2022/09/09 05:13:46;;;;;;;;;;;;;;;18.21;100.00;98721.90;105137;1270;69514;-72
2022/09/09 05:16:13;;;;;;;;;;;;;;;18.54;100.00;98720.85;105055;1270;61269;-71
2022/09/09 05:18:40;;;;;;;;;;;;;;;18.81;100.00;98726.29;105279;1270;61493;-71
2022/09/09 05:21:06;;;;;;;;;;;;;;;19.11;100.00;98729.59;105149;1270;61276;-71
2022/09/09 05:23:33;;;;;;;;;;;;;;;19.44;100.00;98734.54;105178;1270;61276;-71
2022/09/09 05:26:02;;;;;;;;;;;;;;;19.75;100.00;98740.93;105104;1270;70860;-71
2022/09/09 05:28:29;;;;;;;;;;;;;;;20.05;100.00;98740.92;105299;1270;74561;-71
2022/09/09 05:31:00;;;;;;;;;;;;;;;20.31;100.00;98736.70;105016;1270;61913;-71
2022/09/09 05:33:27;;;;;;;;;;;;;;;20.53;100.00;98740.64;104986;1270;61334;-70
2022/09/09 05:35:59;;;;;;;;;;;;;;;20.76;100.00;98738.06;105155;1270;75442;-72
2022/09/09 05:38:25;;;;;;;;;;;;;;;20.93;100.00;98740.58;105104;1270;70371;-71
2022/09/09 05:40:52;;;;;;;;;;;;;;;21.19;100.00;98744.16;105155;1270;61327;-72
2022/09/09 05:43:19;;;;;;;;;;;;;;;21.39;100.00;98750.13;105208;1270;61350;-71
2022/09/09 05:45:47;;;;;;;;;;;;;;;21.69;100.00;98750.17;105195;1270;61910;-70
2022/09/09 05:48:16;;;;;;;;;;;;;;;21.91;100.00;98747.70;105045;1270;76485;-70
2022/09/09 05:50:42;;;;;;;;;;;;;;;22.03;100.00;98742.85;105117;1270;68451;-70
2022/09/09 05:53:10;;;;;;;;;;;;;;;22.02;100.00;98742.02;105166;1270;73368;-70
2022/09/09 05:55:37;;;;;;;;;;;;;;;21.84;100.00;98747.86;105075;1270;61438;-70
2022/09/09 05:58:04;;;;;;;;;;;;;;;21.59;100.00;98749.45;105165;1270;61240;-71
2022/09/09 06:00:31;;;;;;;;;;;;;;;21.41;100.00;98750.52;105045;1270;76440;-71
2022/09/09 06:02:58;;;;;;;;;;;;;;;21.33;100.00;98749.08;105130;1270;69571;-70
2022/09/09 06:05:27;;;;;;;;;;;;;;;21.16;100.00;98752.60;105155;1270;74501;-69
2022/09/09 06:07:53;;;;;;;;;;;;;;;21.15;100.00;98748.75;105102;1270;61285;-72
2022/09/09 06:10:19;;;;;;;;;;;;;;;21.34;100.00;98750.50;105122;1270;61151;-70
2022/09/09 06:12:45;;;;;;;;;;;;;;;21.46;100.00;98754.54;105122;1270;61289;-70
2022/09/09 06:15:13;;;;;;;;;;;;;;;21.56;100.00;98753.84;105127;1270;61259;-70
2022/09/09 06:17:38;;;;;;;;;;;;;;;21.69;100.00;98752.95;105163;1270;61371;-70
2022/09/09 06:20:10;;;;;;;;;;;;;;;21.86;100.00;98752.80;105167;1270;61355;-70
2022/09/09 06:22:36;;;;;;;;;;;;;;;21.94;100.00;98753.84;104154;1270;1371196;-71
2022/09/09 06:25:03;;;;;;;;;;;;;;;22.07;100.00;98749.29;105141;1270;61387;-71
2022/09/09 06:27:28;;;;;;;;;;;;;;;22.09;100.00;98747.52;105126;1270;70061;-71
2022/09/09 06:29:54;;;;;;;;;;;;;;;21.93;100.00;98748.38;105168;1270;61272;-71
2022/09/09 06:32:20;;;;;;;;;;;;;;;21.70;100.00;98748.98;104819;1271;61263;-71
2022/09/09 06:34:49;;;;;;;;;;;;;;;21.57;100.00;98747.50;105143;1270;61301;-71
2022/09/09 06:37:15;;;;;;;;;;;;;;;21.50;100.00;98750.05;105183;1270;61282;-71
2022/09/09 06:39:41;;;;;;;;;;;;;;;21.42;100.00;98749.83;105170;1270;61315;-71
2022/09/09 06:42:08;;;;;;;;;;;;;;;21.34;100.00;98750.02;105155;1270;61375;-71
2022/09/09 06:44:34;;;;;;;;;;;;;;;21.23;100.00;98748.17;105197;1270;61401;-71
2022/09/09 06:47:00;;;;;;;;;;;;;;;21.13;100.00;98745.38;105193;1270;61305;-71
2022/09/09 06:49:26;;;;;;;;;;;;;;;21.09;100.00;98748.98;105135;1270;61305;-72
2022/09/09 06:51:51;;;;;;;;;;;;;;;21.11;100.00;98746.83;105173;1270;61423;-71
2022/09/09 06:54:19;;;;;;;;;;;;;;;21.09;100.00;98742.59;105162;1270;61275;-70
2022/09/09 06:56:45;;;;;;;;;;;;;;;21.05;100.00;98750.74;105169;1270;61135;-70
2022/09/09 06:59:12;;;;;;;;;;;;;;;21.07;100.00;98754.03;105178;1270;59306;-71
2022/09/09 07:01:40;;;;;;;;;;;;;;;21.11;100.00;98747.39;105188;1270;61359;-70
2022/09/09 07:04:08;;;;;;;;;;;;;;;21.11;100.00;98750.36;105153;1270;61999;-70
2022/09/09 07:06:36;;;;;;;;;;;;;;;21.13;100.00;98747.73;105154;1270;73533;-71
2022/09/09 07:09:10;;;;;;;;;;;;;;;21.10;100.00;98746.42;105217;1270;61286;-70
2022/09/09 07:11:43;;;;;;;;;;;;;;;21.12;100.00;98744.30;105186;1270;61384;-70
2022/09/09 07:14:12;;;;;;;;;;;;;;;21.15;100.00;98740.45;105114;1270;76621;-71
2022/09/09 07:16:39;;;;;;;;;;;;;;;21.20;100.00;98743.98;105151;1270;69217;-70
2022/09/09 07:19:05;;;;;;;;;;;;;;;21.28;100.00;98746.21;105124;1270;61410;-70
2022/09/09 07:21:32;;;;;;;;;;;;;;;21.31;100.00;98744.40;105145;1270;61304;-70
2022/09/09 07:23:59;;;;;;;;;;;;;;;21.31;100.00;98739.89;105031;1270;61176;-70
2022/09/09 07:26:26;;;;;;;;;;;;;;;21.36;100.00;98737.36;105152;1270;61245;-70
2022/09/09 07:28:53;;;;;;;;;;;;;;;21.31;100.00;98739.52;105172;1270;70459;-70
2022/09/09 07:31:20;;;;;;;;;;;;;;;21.28;100.00;98739.51;105245;1270;74631;-70
2022/09/09 07:33:48;;;;;;;;;;;;;;;21.27;100.00;98737.65;105146;1270;61273;-70
2022/09/09 07:36:15;;;;;;;;;;;;;;;21.35;100.00;98736.69;105158;1270;61177;-71
2022/09/09 07:38:46;;;;;;;;;;;;;;;21.44;100.00;98738.21;105122;1270;75281;-71
2022/09/09 07:41:14;;;;;;;;;;;;;;;21.55;100.00;98741.82;105167;1269;70449;-71
2022/09/09 07:43:45;;;;;;;;;;;;;;;21.63;100.00;98743.63;105160;1270;74238;-71
2022/09/09 07:46:12;;;;;;;;;;;;;;;21.71;100.00;98748.13;105261;1270;61391;-70
2022/09/09 07:48:44;;;;;;;;;;;;;;;21.77;100.00;98750.96;105086;1270;61309;-71
2022/09/09 07:51:18;;;;;;;;;;;;;;;21.84;100.00;98755.77;105039;1270;76348;-71
2022/09/09 07:53:45;;;;;;;;;;;;;;;21.94;100.00;98754.61;105034;1271;69217;-72
2022/09/09 07:56:13;;;;;;;;;;;;;;;21.97;100.00;98755.91;105110;1270;73547;-72
2022/09/09 07:58:40;;;;;;;;;;;;;;;21.96;100.00;98758.86;105317;1270;61305;-71
2022/09/09 08:01:19;;;;;;;;;;;;;;;21.98;100.00;98755.63;105070;1270;61263;-71
2022/09/09 08:03:46;;;;;;;;;;;;;;;21.73;100.00;98757.60;105084;1270;75654;-71
2022/09/09 08:06:13;;;;;;;;;;;;;;;21.50;100.00;98756.08;105170;1270;70696;-70
2022/09/09 08:08:41;;;;;;;;;;;;;;;21.45;100.00;98757.40;105172;1270;74504;-70
2022/09/09 08:11:09;;;;;;;;;;;;;;;21.35;100.00;98765.77;105082;1270;61415;-70
2022/09/09 08:13:36;;;;;;;;;;;;;;;21.21;100.00;98764.91;105254;1269;61329;-70
2022/09/09 08:16:06;;;;;;;;;;;;;;;21.31;100.00;98766.48;104944;1270;75457;-70
2022/09/09 08:18:32;;;;;;;;;;;;;;;21.41;100.00;98769.63;105124;1270;67457;-71
2022/09/09 08:21:04;;;;;;;;;;;;;;;21.57;100.00;98770.18;105088;1270;61441;-71
2022/09/09 08:23:30;;;;;;;;;;;;;;;21.65;100.00;98769.64;105091;1270;61395;-70
2022/09/09 08:26:05;;;;;;;;;;;;;;;21.71;100.00;98772.66;105082;1270;61314;-69
2022/09/09 08:28:31;;;;;;;;;;;;;;;21.82;100.00;98774.80;105139;1270;76340;-71
2022/09/09 08:31:04;;;;;;;;;;;;;;;22.06;100.00;98780.83;105157;1270;61253;-71
2022/09/09 08:33:30;;;;;;;;;;;;;;;22.21;100.00;98778.31;104906;1270;73634;-70
2022/09/09 08:35:56;;;;;;;;;;;;;;;22.44;100.00;98771.81;104967;1270;61302;-71
2022/09/09 08:38:23;;;;;;;;;;;;;;;22.68;100.00;98758.85;104944;1270;61347;-70
2022/09/09 08:40:50;;;;;;;;;;;;;;;22.91;100.00;98762.29;105029;1270;61354;-70
2022/09/09 08:43:18;;;;;;;;;;;;;;;23.01;100.00;98764.94;104977;1270;61342;-70
2022/09/09 08:45:57;;;;;;;;;;;;;;;23.09;100.00;98765.20;105264;1269;73874;-71
2022/09/09 08:48:34;;;;;;;;;;;;;;;23.29;100.00;98761.02;104945;1270;61303;-70
2022/09/09 08:51:02;;;;;;;;;;;;;;;23.50;100.00;98760.31;105273;1270;61173;-70
2022/09/09 08:53:30;;;;;;;;;;;;;;;23.70;100.00;98761.30;105098;1270;76700;-70
2022/09/09 08:55:58;;;;;;;;;;;;;;;23.87;100.00;98759.22;105089;1270;70627;-72
2022/09/09 08:58:29;;;;;;;;;;;;;;;23.93;100.00;98754.81;105147;1270;73463;-71
2022/09/09 09:00:55;;;;;;;;;;;;;;;23.91;100.00;98757.73;105092;1270;61342;-71
2022/09/09 09:03:32;;;;;;;;;;;;;;;23.92;100.00;98763.30;105096;1270;61397;-71
2022/09/09 09:06:10;;;;;;;;;;;;;;;23.98;100.00;98762.28;104927;1271;75371;-71
2022/09/09 09:08:43;;;;;;;;;;;;;;;24.05;100.00;98762.77;105123;1270;69271;-71
2022/09/09 09:11:09;;;;;;;;;;;;;;;24.05;100.00;98762.84;105104;1270;73764;-71
2022/09/09 09:13:40;;;;;;;;;;;;;;;24.06;100.00;98758.63;105133;1270;61365;-71
2022/09/09 09:16:13;;;;;;;;;;;;;;;24.07;100.00;98757.13;105110;1270;61279;-70
2022/09/09 09:18:40;;;;;;;;;;;;;;;24.01;100.00;98752.55;105107;1270;75677;-70
2022/09/09 09:21:14;;;;;;;;;;;;;;;24.06;100.00;98755.30;105130;1270;61290;-70
2022/09/09 09:23:55;;;;;;;;;;;;;;;24.18;100.00;98756.92;105122;1270;74390;-70
2022/09/09 09:26:23;;;;;;;;;;;;;;;24.21;100.00;98755.40;105104;1270;61373;-70
2022/09/09 09:28:51;;;;;;;;;;;;;;;24.25;100.00;98752.67;105085;1270;62120;-70
2022/09/09 09:31:19;;;;;;;;;;;;;;;24.37;100.00;98751.60;105273;1270;75579;-70
2022/09/09 09:33:46;;;;;;;;;;;;;;;24.41;100.00;98752.34;105126;1270;69293;-73
2022/09/09 09:36:15;;;;;;;;;;;;;;;24.51;100.00;98748.10;105102;1270;61311;-72
2022/09/09 09:39:00;;;;;;;;;;;;;;;24.63;100.00;98744.03;105117;1270;61381;-71
2022/09/09 09:41:31;;;;;;;;;;;;;;;24.82;100.00;98736.18;105116;1270;61253;-70
2022/09/09 09:43:58;;;;;;;;;;;;;;;24.91;100.00;98739.34;105129;1270;75421;-70
2022/09/09 09:46:25;;;;;;;;;;;;;;;24.86;100.00;98743.76;105171;1270;69522;-70
2022/09/09 09:48:56;;;;;;;;;;;;;;;24.85;100.00;98746.85;104985;1270;74302;-70
2022/09/09 09:51:23;;;;;;;;;;;;;;;24.85;100.00;98749.08;105032;1270;61400;-71
2022/09/09 09:53:49;;;;;;;;;;;;;;;24.73;100.00;98748.08;105078;1270;61355;-71
2022/09/09 09:56:16;;;;;;;;;;;;;;;24.70;100.00;98744.06;105135;1270;61382;-71
2022/09/09 09:58:45;;;;;;;;;;;;;;;24.71;100.00;98744.25;105021;1270;61375;-70
2022/09/09 10:01:20;;;;;;;;;;;;;;;24.66;100.00;98739.65;105106;1270;74622;-70
2022/09/09 10:03:52;;;;;;;;;;;;;;;24.79;100.00;98740.73;105123;1270;61291;-71
2022/09/09 10:06:28;;;;;;;;;;;;;;;24.94;100.00;98750.21;105161;1270;61246;-71
2022/09/09 10:08:55;;;;;;;;;;;;;;;25.14;100.00;98750.84;105118;1270;75762;-69
2022/09/09 10:11:24;;;;;;;;;;;;;;;25.34;100.00;98748.68;105148;1270;61294;-70
2022/09/09 10:14:04;;;;;;;;;;;;;;;25.59;100.00;98748.84;105121;1270;73435;-70
2022/09/09 10:16:49;;;;;;;;;;;;;;;25.69;100.00;98748.28;105083;1270;61387;-70
2022/09/09 10:19:16;;;;;;;;;;;;;;;25.38;100.00;98750.72;105115;1270;61141;-72
2022/09/09 10:21:57;;;;;;;;;;;;;;;25.22;100.00;98752.48;105177;1270;76941;-70
2022/09/09 10:24:26;;;;;;;;;;;;;;;25.28;100.00;98751.70;105147;1270;69566;-71
2022/09/09 10:27:02;;;;;;;;;;;;;;;25.42;100.00;98755.77;105108;1270;73539;-70
2022/09/09 10:29:43;;;;;;;;;;;;;;;25.38;100.00;98754.82;105125;1270;61330;-70
2022/09/09 10:32:20;;;;;;;;;;;;;;;25.39;100.00;98761.75;105119;1270;61208;-70
2022/09/09 10:34:57;;;;;;;;;;;;;;;25.37;100.00;98763.27;104975;1270;75471;-70
2022/09/09 10:37:30;;;;;;;;;;;;;;;25.50;100.00;98760.98;105134;1270;70398;-70
2022/09/09 10:40:14;;;;;;;;;;;;;;;25.64;100.00;98762.71;105083;1270;73878;-71
2022/09/09 10:42:42;;;;;;;;;;;;;;;25.81;100.00;98767.23;105137;1270;61284;-71
2022/09/09 10:45:25;;;;;;;;;;;;;;;25.98;100.00;98757.83;105099;1270;61263;-70
2022/09/09 10:48:00;;;;;;;;;;;;;;;26.07;100.00;98752.97;105093;1270;76410;-71
2022/09/09 10:50:47;;;;;;;;;;;;;;;26.13;100.00;98756.08;105129;1270;69661;-70
2022/09/09 10:53:13;;;;;;;;;;;;;;;26.08;100.00;98755.86;105135;1270;73218;-70
2022/09/09 10:55:45;;;;;;;;;;;;;;;26.05;100.00;98754.64;105117;1270;61249;-70
2022/09/09 10:58:19;;;;;;;;;;;;;;;26.04;100.00;98752.00;105127;1270;61938;-71
2022/09/09 11:00:47;;;;;;;;;;;;;;;26.09;100.00;98752.04;105090;1270;76253;-69
2022/09/09 11:03:25;;;;;;;;;;;;;;;26.19;100.00;98749.40;105142;1269;70515;-70
2022/09/09 11:05:51;;;;;;;;;;;;;;;26.06;100.00;98752.42;105063;1270;74250;-70
2022/09/09 11:08:18;;;;;;;;;;;;;;;25.81;100.00;98753.36;105095;1270;61276;-70
2022/09/09 11:11:04;;;;;;;;;;;;;;;25.49;100.00;98755.27;105121;1270;61139;-70
2022/09/09 11:13:48;;;;;;;;;;;;;;;25.32;100.00;98753.70;105106;1270;75706;-71
2022/09/09 11:16:20;;;;;;;;;;;;;;;25.50;100.00;98752.30;105097;1270;69450;-70
2022/09/09 11:18:47;;;;;;;;;;;;;;;25.65;100.00;98748.48;105051;1270;73333;-70
2022/09/09 11:21:26;;;;;;;;;;;;;;;25.81;100.00;98749.25;105072;1270;61274;-70
2022/09/09 11:23:57;;;;;;;;;;;;;;;25.92;100.00;98750.00;105132;1270;61419;-71
2022/09/09 11:26:59;;;;;;;;;;;;;;;25.94;100.00;98758.08;105065;1270;74215;-71
2022/09/09 11:29:44;;;;;;;;;;;;;;;26.04;100.00;98757.42;104623;1276;69996;-70
2022/09/09 11:32:32;;;;;;;;;;;;;;;26.15;100.00;98754.83;104649;1276;74400;-70
2022/09/09 11:35:17;;;;;;;;;;;;;;;26.10;100.00;98759.17;104694;1276;61270;-70
2022/09/09 11:37:43;;;;;;;;;;;;;;;26.10;100.00;98759.73;104459;1279;61853;-70
2022/09/09 11:40:10;;;;;;;;;;;;;;;26.20;100.00;98760.99;104662;1276;61566;-70
2022/09/09 11:42:36;;;;;;;;;;;;;;;26.29;100.00;98763.44;104493;1279;69326;-70
2022/09/09 11:45:31;;;;;;;;;;;;;;;26.27;100.00;98763.23;104626;1276;61386;-70
2022/09/09 11:48:01;;;;;;;;;;;;;;;26.21;100.00;98757.30;103967;1284;61647;-70
2022/09/09 11:50:30;;;;;;;;;;;;;;;26.15;100.00;98757.94;103973;1284;61285;-70
2022/09/09 11:53:14;;;;;;;;;;;;;;;26.12;100.00;98757.63;104017;1285;76427;-70
2022/09/09 11:55:41;;;;;;;;;;;;;;;26.14;100.00;98760.20;104161;1284;69402;-71
2022/09/09 11:58:10;;;;;;;;;;;;;;;26.09;100.00;98758.77;103834;1285;61277;-70
2022/09/09 12:00:40;;;;;;;;;;;;;;;26.05;100.00;98757.09;103935;1284;61274;-70
2022/09/09 12:03:27;;;;;;;;;;;;;;;25.97;100.00;98761.57;104066;1281;62117;-71
2022/09/09 12:05:53;;;;;;;;;;;;;;;25.85;100.00;98764.30;104483;1279;76081;-71
2022/09/09 12:08:25;;;;;;;;;;;;;;;25.77;100.00;98760.61;104494;1279;61323;-70
2022/09/09 12:10:56;;;;;;;;;;;;;;;25.81;100.00;98758.45;104463;1279;74473;-70
2022/09/09 12:13:24;;;;;;;;;;;;;;;25.88;100.00;98757.22;104553;1279;61388;-70
2022/09/09 12:15:51;;;;;;;;;;;;;;;25.98;100.00;98759.85;104606;1279;62688;-70
2022/09/09 12:18:39;;;;;;;;;;;;;;;26.09;100.00;98755.98;104487;1279;74156;-71
2022/09/09 12:21:12;;;;;;;;;;;;;;;26.18;100.00;98757.14;104396;1279;71092;-71
2022/09/09 12:23:58;;;;;;;;;;;;;;;26.19;100.00;98754.86;104522;1279;73391;-71
2022/09/09 12:26:37;;;;;;;;;;;;;;;26.08;100.00;98757.67;105095;1270;61269;-71
2022/09/09 12:29:28;;;;;;;;;;;;;;;25.93;100.00;98762.52;105231;1270;61199;-70
2022/09/09 12:31:54;;;;;;;;;;;;;;;25.91;100.00;98759.03;105130;1270;76567;-69
2022/09/09 12:34:22;;;;;;;;;;;;;;;25.90;100.00;98763.02;105101;1270;61304;-70
2022/09/09 12:37:02;;;;;;;;;;;;;;;25.90;100.00;98764.65;105121;1270;73518;-70
2022/09/09 12:39:35;;;;;;;;;;;;;;;26.01;100.00;98768.88;105131;1270;61289;-70
2022/09/09 12:42:04;;;;;;;;;;;;;;;26.08;100.00;98768.93;104957;1270;61296;-70